Time;durP1;ratioP1;P1;durP2;ratioP2;P2;SDS_P1;SDS_P2;PMS_P1;PMS_P2;Temp;Humidity;BMP_temperature;BMP_pressure;BME280_temperature;BME280_humidity;BME280_pressure;Samples;Min_cycle;Max_cycle;Signal;HPM_P1;HPM_P2
2022/06/29 00:00:52;;;;;;;3.60;2.17;;;;;;;;;;5012546;28;20194;-72
2022/06/29 00:03:17;;;;;;;3.75;1.98;;;;;;;;;;5009084;28;20218;-72
2022/06/29 00:05:42;;;;;;;3.10;1.70;;;;;;;;;;5011053;28;20298;-72
2022/06/29 00:08:07;;;;;;;3.05;2.25;;;;;;;;;;5012626;28;20264;-73
2022/06/29 00:10:33;;;;;;;2.08;1.45;;;;;;;;;;5010052;28;20224;-72
2022/06/29 00:12:58;;;;;;;4.57;1.85;;;;;;;;;;5009477;28;20279;-72
2022/06/29 00:15:23;;;;;;;4.40;1.88;;;;;;;;;;5010963;28;20190;-73
2022/06/29 00:17:49;;;;;;;5.25;1.73;;;;;;;;;;5009265;28;20187;-72
2022/06/29 00:20:15;;;;;;;3.65;2.00;;;;;;;;;;4991283;28;20564;-72
2022/06/29 00:22:41;;;;;;;2.60;1.50;;;;;;;;;;5011968;28;20202;-73
2022/06/29 00:25:07;;;;;;;3.60;1.83;;;;;;;;;;5003935;28;20189;-72
2022/06/29 00:27:32;;;;;;;2.05;1.70;;;;;;;;;;5002071;28;20214;-72
2022/06/29 00:29:58;;;;;;;5.55;1.83;;;;;;;;;;5017219;28;20186;-73
2022/06/29 00:32:23;;;;;;;3.28;2.40;;;;;;;;;;5013115;28;20202;-73
2022/06/29 00:34:48;;;;;;;3.70;1.60;;;;;;;;;;5012804;28;20179;-72
2022/06/29 00:37:14;;;;;;;5.03;1.60;;;;;;;;;;5012555;28;20179;-72
2022/06/29 00:39:39;;;;;;;6.35;1.98;;;;;;;;;;5011129;28;20713;-72
2022/06/29 00:42:04;;;;;;;2.80;1.90;;;;;;;;;;5010800;28;20187;-72
2022/06/29 00:44:29;;;;;;;2.38;1.65;;;;;;;;;;5011376;28;20262;-72
2022/06/29 00:46:58;;;;;;;2.88;2.08;;;;;;;;;;5012669;28;20676;-72
2022/06/29 00:49:25;;;;;;;3.40;2.40;;;;;;;;;;5011644;28;20189;-72
2022/06/29 00:51:54;;;;;;;4.25;2.33;;;;;;;;;;4993725;28;20727;-72
2022/06/29 00:54:20;;;;;;;6.03;2.03;;;;;;;;;;5012705;28;20211;-72
2022/06/29 00:56:46;;;;;;;4.03;1.70;;;;;;;;;;5015111;28;20213;-72
2022/06/29 00:59:12;;;;;;;5.18;2.70;;;;;;;;;;5012304;28;20179;-73
2022/06/29 01:01:38;;;;;;;4.45;2.90;;;;;;;;;;5007057;28;20558;-72
2022/06/29 01:04:03;;;;;;;3.13;2.20;;;;;;;;;;5010483;28;20341;-72
2022/06/29 01:06:28;;;;;;;2.60;1.85;;;;;;;;;;5010274;28;20269;-72
2022/06/29 01:08:54;;;;;;;2.63;1.90;;;;;;;;;;5009535;28;20183;-72
2022/06/29 01:11:19;;;;;;;2.90;1.98;;;;;;;;;;5012369;28;20182;-74
2022/06/29 01:13:44;;;;;;;4.60;2.15;;;;;;;;;;5011376;28;20253;-74
2022/06/29 01:16:09;;;;;;;3.13;2.20;;;;;;;;;;5013258;28;20573;-74
2022/06/29 01:18:35;;;;;;;5.90;2.42;;;;;;;;;;5011260;28;20727;-74
2022/06/29 01:21:04;;;;;;;3.35;1.80;;;;;;;;;;5010294;28;20183;-74
2022/06/29 01:23:29;;;;;;;3.47;1.92;;;;;;;;;;4997536;28;20689;-74
2022/06/29 01:25:54;;;;;;;4.82;2.13;;;;;;;;;;5007982;28;20193;-74
2022/06/29 01:28:19;;;;;;;3.17;2.15;;;;;;;;;;5010901;28;20213;-73
2022/06/29 01:30:45;;;;;;;3.30;1.95;;;;;;;;;;5009967;28;20605;-73
2022/06/29 01:33:10;;;;;;;2.53;2.00;;;;;;;;;;5004583;28;20238;-74
2022/06/29 01:35:35;;;;;;;3.63;2.28;;;;;;;;;;5010842;28;20203;-73
2022/06/29 01:38:00;;;;;;;4.05;1.98;;;;;;;;;;5002920;28;20179;-73
2022/06/29 01:40:25;;;;;;;3.20;2.13;;;;;;;;;;5003347;28;20189;-73
2022/06/29 01:42:51;;;;;;;5.55;2.22;;;;;;;;;;5001384;28;20560;-73
2022/06/29 01:45:16;;;;;;;5.25;2.35;;;;;;;;;;5005529;28;20187;-73
2022/06/29 01:47:41;;;;;;;2.47;2.28;;;;;;;;;;5008442;28;20206;-73
2022/06/29 01:50:06;;;;;;;4.15;2.20;;;;;;;;;;5007531;28;20832;-74
2022/06/29 01:52:32;;;;;;;4.85;2.38;;;;;;;;;;5008364;28;20210;-74
2022/06/29 01:54:57;;;;;;;4.70;2.53;;;;;;;;;;5011564;28;20183;-74
2022/06/29 01:57:22;;;;;;;3.40;2.60;;;;;;;;;;5010392;28;20171;-74
2022/06/29 01:59:47;;;;;;;2.80;2.55;;;;;;;;;;5005368;28;20183;-74
2022/06/29 02:02:12;;;;;;;4.43;2.55;;;;;;;;;;5008107;28;20206;-74
2022/06/29 02:04:38;;;;;;;4.20;2.40;;;;;;;;;;5010075;28;20167;-74
2022/06/29 02:07:03;;;;;;;3.15;2.50;;;;;;;;;;5010742;28;20225;-74
2022/06/29 02:09:28;;;;;;;2.78;2.58;;;;;;;;;;5011773;28;20656;-74
2022/06/29 02:11:53;;;;;;;5.07;2.88;;;;;;;;;;5012967;28;20182;-73
2022/06/29 02:14:18;;;;;;;3.13;2.83;;;;;;;;;;5010901;28;20202;-73
2022/06/29 02:16:44;;;;;;;2.97;2.45;;;;;;;;;;5011642;28;20179;-73
2022/06/29 02:19:09;;;;;;;6.07;3.33;;;;;;;;;;5010546;28;20191;-74
2022/06/29 02:21:34;;;;;;;5.45;2.88;;;;;;;;;;5011366;28;20179;-72
2022/06/29 02:23:59;;;;;;;3.47;2.97;;;;;;;;;;5010105;28;20198;-74
2022/06/29 02:26:25;;;;;;;3.90;2.70;;;;;;;;;;5005974;28;20275;-72
2022/06/29 02:28:50;;;;;;;3.83;2.90;;;;;;;;;;5005813;28;20179;-72
2022/06/29 02:36:43;;;;;;;3.15;2.90;;;;;;;;;;5010363;28;20236;-72
2022/06/29 02:39:08;;;;;;;3.83;3.22;;;;;;;;;;5010440;28;20269;-72
2022/06/29 02:41:34;;;;;;;4.70;2.97;;;;;;;;;;5011055;28;20649;-72
2022/06/29 02:44:00;;;;;;;4.72;3.38;;;;;;;;;;5009135;28;20198;-72
2022/06/29 02:46:25;;;;;;;4.05;2.90;;;;;;;;;;5010714;28;20704;-73
2022/06/29 02:48:51;;;;;;;4.82;3.40;;;;;;;;;;5010945;28;20253;-72
2022/06/29 02:51:16;;;;;;;6.50;3.90;;;;;;;;;;5006802;28;20217;-74
2022/06/29 02:53:41;;;;;;;4.43;3.65;;;;;;;;;;5009456;28;20219;-72
2022/06/29 02:56:06;;;;;;;4.10;3.60;;;;;;;;;;5011453;28;20171;-73
2022/06/29 02:58:31;;;;;;;6.85;3.85;;;;;;;;;;4990977;28;20197;-73
2022/06/29 03:00:57;;;;;;;4.07;3.78;;;;;;;;;;5005721;28;20237;-73
2022/06/29 03:03:22;;;;;;;4.63;3.88;;;;;;;;;;4993867;28;20229;-75
2022/06/29 03:05:47;;;;;;;4.55;4.00;;;;;;;;;;5006944;28;20907;-73
2022/06/29 03:08:12;;;;;;;4.40;4.00;;;;;;;;;;5007322;28;20203;-73
2022/06/29 03:10:38;;;;;;;4.60;3.97;;;;;;;;;;5007460;28;20167;-72
2022/06/29 03:13:03;;;;;;;7.30;4.45;;;;;;;;;;5011133;28;20194;-73
2022/06/29 03:15:28;;;;;;;4.28;3.72;;;;;;;;;;5011229;28;20556;-73
2022/06/29 03:17:53;;;;;;;4.60;4.20;;;;;;;;;;5009810;28;20234;-72
2022/06/29 03:20:19;;;;;;;4.10;3.70;;;;;;;;;;5009645;28;20641;-73
2022/06/29 03:22:46;;;;;;;7.38;4.55;;;;;;;;;;4991819;28;20245;-73
2022/06/29 03:25:11;;;;;;;5.30;4.80;;;;;;;;;;5002581;28;20207;-73
2022/06/29 03:27:36;;;;;;;4.85;4.38;;;;;;;;;;5011974;28;20218;-72
2022/06/29 03:30:02;;;;;;;5.68;4.85;;;;;;;;;;5008359;28;20591;-73
2022/06/29 03:32:27;;;;;;;5.35;4.55;;;;;;;;;;5009731;28;20191;-73
2022/06/29 03:34:52;;;;;;;5.00;3.97;;;;;;;;;;5011267;28;20528;-73
2022/06/29 03:37:18;;;;;;;4.80;4.32;;;;;;;;;;5014001;28;20556;-73
2022/06/29 03:39:44;;;;;;;6.60;5.22;;;;;;;;;;5011365;28;20261;-73
2022/06/29 03:42:09;;;;;;;7.00;5.43;;;;;;;;;;5010713;28;20187;-73
2022/06/29 03:44:34;;;;;;;5.40;4.90;;;;;;;;;;5013342;28;20253;-73
2022/06/29 03:46:59;;;;;;;5.85;5.30;;;;;;;;;;5015114;28;20203;-73
2022/06/29 03:49:26;;;;;;;5.18;4.78;;;;;;;;;;5011558;28;20171;-73
2022/06/29 03:51:51;;;;;;;5.60;5.13;;;;;;;;;;5012872;28;20179;-73
2022/06/29 03:54:16;;;;;;;5.88;5.38;;;;;;;;;;5011200;28;20234;-73
2022/06/29 03:56:41;;;;;;;5.10;4.60;;;;;;;;;;5009963;28;20668;-73
2022/06/29 03:59:07;;;;;;;6.63;5.88;;;;;;;;;;5012763;28;20171;-73
2022/06/29 04:01:32;;;;;;;5.70;5.07;;;;;;;;;;5010916;28;20628;-74
2022/06/29 04:03:57;;;;;;;5.85;5.35;;;;;;;;;;5011911;28;20257;-74
2022/06/29 04:06:22;;;;;;;6.68;5.95;;;;;;;;;;4992266;28;20211;-74
2022/06/29 04:08:48;;;;;;;6.65;5.60;;;;;;;;;;5012607;28;20533;-73
2022/06/29 04:13:56;;;;;;;5.90;5.40;;;;;;;;;;5011763;28;20201;-73
2022/06/29 04:16:22;;;;;;;6.57;5.93;;;;;;;;;;5012599;28;20179;-73
2022/06/29 04:18:47;;;;;;;6.43;5.82;;;;;;;;;;5006351;28;20183;-73
2022/06/29 04:21:12;;;;;;;5.95;5.45;;;;;;;;;;5008555;28;20171;-74
2022/06/29 04:23:37;;;;;;;6.10;5.43;;;;;;;;;;5013957;28;20191;-74
2022/06/29 04:26:03;;;;;;;5.80;5.40;;;;;;;;;;5010573;28;20179;-73
2022/06/29 04:28:28;;;;;;;4.75;4.43;;;;;;;;;;5010487;28;20681;-72
2022/06/29 04:30:53;;;;;;;5.30;4.80;;;;;;;;;;5011609;28;20171;-72
2022/06/29 04:33:18;;;;;;;5.00;4.60;;;;;;;;;;5014337;28;20229;-72
2022/06/29 04:35:43;;;;;;;5.65;4.90;;;;;;;;;;4992689;28;20683;-75
2022/06/29 04:38:09;;;;;;;6.57;4.68;;;;;;;;;;5012368;28;20239;-74
2022/06/29 04:40:34;;;;;;;8.68;6.13;;;;;;;;;;5012511;28;20190;-73
2022/06/29 04:42:59;;;;;;;5.95;4.25;;;;;;;;;;4994473;28;20199;-73
2022/06/29 04:48:08;;;;;;;5.05;4.47;;;;;;;;;;5018727;28;20345;-73
2022/06/29 04:50:33;;;;;;;4.53;4.10;;;;;;;;;;4996240;28;20270;-73
2022/06/29 04:52:58;;;;;;;6.43;4.15;;;;;;;;;;5012099;28;20646;-73
2022/06/29 04:55:25;;;;;;;5.07;4.15;;;;;;;;;;5017264;28;20174;-72
2022/06/29 04:57:51;;;;;;;4.53;4.05;;;;;;;;;;5016666;28;20614;-72
2022/06/29 05:00:16;;;;;;;4.88;4.47;;;;;;;;;;5012520;28;20182;-71
2022/06/29 05:02:41;;;;;;;5.15;3.95;;;;;;;;;;5012191;28;20230;-72
2022/06/29 05:05:07;;;;;;;5.32;4.93;;;;;;;;;;5013533;28;20182;-71
2022/06/29 05:07:32;;;;;;;5.22;4.50;;;;;;;;;;5013672;28;20311;-71
2022/06/29 05:09:57;;;;;;;5.85;4.53;;;;;;;;;;5007894;28;20217;-71
2022/06/29 05:12:22;;;;;;;5.55;4.82;;;;;;;;;;5010113;28;20198;-72
2022/06/29 05:14:47;;;;;;;5.55;4.45;;;;;;;;;;5009743;28;20182;-71
2022/06/29 05:17:13;;;;;;;7.72;5.05;;;;;;;;;;5008313;28;20191;-72
2022/06/29 05:19:38;;;;;;;5.45;4.95;;;;;;;;;;5002460;28;20214;-72
2022/06/29 05:22:03;;;;;;;5.07;4.67;;;;;;;;;;5001522;28;20263;-72
2022/06/29 05:24:28;;;;;;;5.78;4.93;;;;;;;;;;5000192;28;21206;-72
2022/06/29 05:26:54;;;;;;;6.70;4.47;;;;;;;;;;5000991;28;20329;-72
2022/06/29 05:29:19;;;;;;;6.50;5.10;;;;;;;;;;5001537;28;20557;-72
2022/06/29 05:31:45;;;;;;;6.25;4.80;;;;;;;;;;4986376;28;20437;-72
2022/06/29 05:34:10;;;;;;;6.15;5.00;;;;;;;;;;5002713;28;20709;-72
2022/06/29 05:36:35;;;;;;;5.17;4.73;;;;;;;;;;5002328;28;20203;-72
2022/06/29 05:39:00;;;;;;;5.57;5.05;;;;;;;;;;5007519;28;20421;-72
2022/06/29 05:41:26;;;;;;;6.75;5.45;;;;;;;;;;5003322;28;20186;-72
2022/06/29 05:43:51;;;;;;;5.93;4.95;;;;;;;;;;5000256;28;20197;-72
2022/06/29 05:46:18;;;;;;;5.35;4.85;;;;;;;;;;5003126;28;20522;-72
2022/06/29 05:48:43;;;;;;;7.30;4.80;;;;;;;;;;4997983;28;20306;-72
2022/06/29 05:51:08;;;;;;;7.28;5.45;;;;;;;;;;5002304;28;20177;-73
2022/06/29 05:53:34;;;;;;;8.47;5.50;;;;;;;;;;4991613;28;20289;-72
2022/06/29 05:55:59;;;;;;;6.18;5.10;;;;;;;;;;5006721;28;20800;-72
2022/06/29 05:58:25;;;;;;;6.07;5.00;;;;;;;;;;5005992;28;20233;-72
2022/06/29 06:00:50;;;;;;;6.43;4.80;;;;;;;;;;5001150;28;20436;-72
2022/06/29 06:03:15;;;;;;;5.35;4.85;;;;;;;;;;5001396;28;20260;-72
2022/06/29 06:05:41;;;;;;;7.88;4.30;;;;;;;;;;5001886;28;20193;-72
2022/06/29 06:08:06;;;;;;;6.90;5.15;;;;;;;;;;4999887;28;20213;-72
2022/06/29 06:10:31;;;;;;;7.03;5.32;;;;;;;;;;5000358;28;20179;-72
2022/06/29 06:12:57;;;;;;;6.82;5.03;;;;;;;;;;5002123;28;20195;-72
2022/06/29 06:15:22;;;;;;;6.10;4.85;;;;;;;;;;5008172;28;20719;-72
2022/06/29 06:17:47;;;;;;;5.73;5.17;;;;;;;;;;5005636;28;20261;-73
2022/06/29 06:20:12;;;;;;;9.35;5.25;;;;;;;;;;5005036;28;20433;-72
2022/06/29 06:22:38;;;;;;;5.27;4.77;;;;;;;;;;5010288;28;20194;-73
2022/06/29 06:25:03;;;;;;;6.07;4.73;;;;;;;;;;5010251;28;20436;-72
2022/06/29 06:27:28;;;;;;;6.32;4.65;;;;;;;;;;5008301;28;20551;-73
2022/06/29 06:29:54;;;;;;;6.18;4.50;;;;;;;;;;4994097;28;20603;-72
2022/06/29 06:32:19;;;;;;;7.03;4.80;;;;;;;;;;5013631;28;20195;-72
2022/06/29 06:34:44;;;;;;;7.10;4.90;;;;;;;;;;5011417;28;20636;-72
2022/06/29 06:37:09;;;;;;;6.30;4.40;;;;;;;;;;5015955;28;20416;-72
2022/06/29 06:39:34;;;;;;;7.47;5.25;;;;;;;;;;5002010;28;20429;-72
2022/06/29 06:41:59;;;;;;;5.78;4.45;;;;;;;;;;4998870;28;20175;-72
2022/06/29 06:44:25;;;;;;;5.23;4.73;;;;;;;;;;5006442;28;20198;-72
2022/06/29 06:46:50;;;;;;;4.95;4.55;;;;;;;;;;5011468;28;20452;-73
2022/06/29 06:49:16;;;;;;;6.85;4.80;;;;;;;;;;5010388;28;20175;-72
2022/06/29 06:51:41;;;;;;;6.68;5.05;;;;;;;;;;5011775;28;20261;-73
2022/06/29 06:54:06;;;;;;;6.43;5.07;;;;;;;;;;5011200;28;20226;-73
2022/06/29 06:56:31;;;;;;;6.73;4.23;;;;;;;;;;5002403;28;20441;-72
2022/06/29 06:58:56;;;;;;;6.30;4.45;;;;;;;;;;5005922;28;20905;-73
2022/06/29 07:01:22;;;;;;;6.57;4.32;;;;;;;;;;5014585;28;20190;-73
2022/06/29 07:03:47;;;;;;;6.43;3.80;;;;;;;;;;5015317;28;20619;-73
2022/06/29 07:06:12;;;;;;;5.17;4.40;;;;;;;;;;5014144;28;20265;-73
2022/06/29 07:08:38;;;;;;;6.95;4.95;;;;;;;;;;5014842;28;20465;-73
2022/06/29 07:11:04;;;;;;;4.25;3.85;;;;;;;;;;5016504;28;20555;-72
2022/06/29 07:13:32;;;;;;;7.38;3.88;;;;;;;;;;5012957;28;20187;-73
2022/06/29 07:15:58;;;;;;;6.35;3.72;;;;;;;;;;5000889;28;20175;-72
2022/06/29 07:18:23;;;;;;;5.85;3.40;;;;;;;;;;5014829;28;20649;-72
2022/06/29 07:20:48;;;;;;;4.97;3.88;;;;;;;;;;5015385;28;20199;-72
2022/06/29 07:23:14;;;;;;;5.50;3.37;;;;;;;;;;5015485;28;20197;-72
2022/06/29 07:25:39;;;;;;;6.18;3.80;;;;;;;;;;5015307;28;20400;-72
2022/06/29 07:28:05;;;;;;;4.93;3.43;;;;;;;;;;5014434;28;20191;-72
2022/06/29 07:30:30;;;;;;;4.15;2.88;;;;;;;;;;5014732;28;20802;-72
2022/06/29 07:32:56;;;;;;;4.82;3.83;;;;;;;;;;5012969;28;20199;-72
2022/06/29 07:35:21;;;;;;;7.87;4.30;;;;;;;;;;5014410;28;20566;-72
2022/06/29 07:37:46;;;;;;;5.30;3.75;;;;;;;;;;5014314;28;20404;-72
2022/06/29 07:40:12;;;;;;;4.35;2.67;;;;;;;;;;5012431;28;20179;-72
2022/06/29 07:42:38;;;;;;;5.45;3.10;;;;;;;;;;5014527;28;20206;-72
2022/06/29 07:45:04;;;;;;;2.95;2.67;;;;;;;;;;5018046;28;20174;-72
2022/06/29 07:47:29;;;;;;;5.57;2.60;;;;;;;;;;5013131;28;20200;-72
2022/06/29 07:49:54;;;;;;;4.22;2.80;;;;;;;;;;5013405;28;20171;-72
2022/06/29 07:52:19;;;;;;;3.20;2.55;;;;;;;;;;5013319;28;20237;-72
2022/06/29 07:54:45;;;;;;;5.07;2.70;;;;;;;;;;5011184;28;20190;-73
2022/06/29 07:57:10;;;;;;;5.07;2.67;;;;;;;;;;5014712;28;20185;-72
2022/06/29 07:59:35;;;;;;;4.90;3.00;;;;;;;;;;5012324;28;20459;-72
2022/06/29 08:02:00;;;;;;;4.70;2.33;;;;;;;;;;5012497;28;20863;-72
2022/06/29 08:04:25;;;;;;;5.20;2.83;;;;;;;;;;5013013;28;21041;-72
2022/06/29 08:06:51;;;;;;;3.35;2.30;;;;;;;;;;5014331;28;20447;-72
2022/06/29 08:09:16;;;;;;;3.35;2.72;;;;;;;;;;5010934;28;20333;-72
2022/06/29 08:11:41;;;;;;;5.30;2.63;;;;;;;;;;5013994;28;20221;-72
2022/06/29 08:14:06;;;;;;;2.95;2.38;;;;;;;;;;5013095;28;20490;-72
2022/06/29 08:16:31;;;;;;;3.63;2.20;;;;;;;;;;5014621;28;20218;-73
2022/06/29 08:18:57;;;;;;;5.17;2.10;;;;;;;;;;4996168;28;20416;-72
2022/06/29 08:21:22;;;;;;;4.23;2.43;;;;;;;;;;5001062;28;20425;-72
2022/06/29 08:23:48;;;;;;;5.07;2.70;;;;;;;;;;5016697;28;20439;-72
2022/06/29 08:26:13;;;;;;;4.13;2.45;;;;;;;;;;5012534;28;20801;-72
2022/06/29 08:28:38;;;;;;;5.88;3.10;;;;;;;;;;5012975;28;20203;-72
2022/06/29 08:31:03;;;;;;;3.80;2.73;;;;;;;;;;5015358;28;20167;-72
2022/06/29 08:33:29;;;;;;;4.90;3.00;;;;;;;;;;5013366;28;20664;-72
2022/06/29 08:35:54;;;;;;;3.88;3.17;;;;;;;;;;5014771;28;20179;-72
2022/06/29 08:38:19;;;;;;;5.43;2.75;;;;;;;;;;5013030;28;20214;-72
2022/06/29 08:40:45;;;;;;;5.80;2.90;;;;;;;;;;5012388;28;20665;-73
2022/06/29 08:43:15;;;;;;;5.63;2.92;;;;;;;;;;5013533;28;20447;-72
2022/06/29 08:45:50;;;;;;;5.03;3.78;;;;;;;;;;5013324;28;20193;-72
2022/06/29 08:48:16;;;;;;;3.35;2.90;;;;;;;;;;5011718;28;20190;-72
2022/06/29 08:50:41;;;;;;;3.90;2.58;;;;;;;;;;5014630;28;20201;-72
2022/06/29 08:53:07;;;;;;;6.25;3.13;;;;;;;;;;5013200;28;20744;-72
2022/06/29 08:55:37;;;;;;;5.82;2.80;;;;;;;;;;5013002;28;20171;-72
2022/06/29 08:58:02;;;;;;;4.32;3.22;;;;;;;;;;5012682;28;20258;-72
2022/06/29 09:00:29;;;;;;;6.43;3.35;;;;;;;;;;5013004;28;20279;-72
2022/06/29 09:02:54;;;;;;;3.28;2.67;;;;;;;;;;4995894;28;20637;-72
2022/06/29 09:05:19;;;;;;;3.30;2.85;;;;;;;;;;5012725;28;20262;-72
2022/06/29 09:07:45;;;;;;;6.37;2.67;;;;;;;;;;5012366;28;20697;-72
2022/06/29 09:10:12;;;;;;;3.27;2.97;;;;;;;;;;5010661;28;20167;-72
2022/06/29 09:12:37;;;;;;;3.85;3.45;;;;;;;;;;5012124;28;20533;-71
2022/06/29 09:15:04;;;;;;;4.78;3.10;;;;;;;;;;5013238;28;20270;-72
2022/06/29 09:17:33;;;;;;;5.72;4.32;;;;;;;;;;5011701;28;20206;-72
2022/06/29 09:19:58;;;;;;;3.40;3.10;;;;;;;;;;5013777;28;20186;-72
2022/06/29 09:22:24;;;;;;;5.10;2.90;;;;;;;;;;5011946;28;20195;-72
2022/06/29 09:24:50;;;;;;;4.47;3.38;;;;;;;;;;5010830;28;20183;-72
2022/06/29 09:27:15;;;;;;;6.90;2.80;;;;;;;;;;5012785;28;20215;-72
2022/06/29 09:29:41;;;;;;;6.55;3.30;;;;;;;;;;5010314;28;20167;-72
2022/06/29 09:32:16;;;;;;;3.42;2.17;;;;;;;;;;4993814;28;20187;-72
2022/06/29 09:34:46;;;;;;;5.47;2.50;;;;;;;;;;5005282;28;20171;-72
2022/06/29 09:37:12;;;;;;;3.70;2.58;;;;;;;;;;5007975;28;20179;-72
2022/06/29 09:39:43;;;;;;;3.90;2.20;;;;;;;;;;5008705;28;20179;-72
2022/06/29 09:42:11;;;;;;;3.03;1.95;;;;;;;;;;5007197;28;20261;-72
2022/06/29 09:44:36;;;;;;;3.25;1.95;;;;;;;;;;5010802;28;20178;-72
2022/06/29 09:47:06;;;;;;;2.78;1.63;;;;;;;;;;5013658;28;20202;-72
2022/06/29 09:49:32;;;;;;;1.88;1.40;;;;;;;;;;5010740;28;20162;-72
2022/06/29 09:51:58;;;;;;;5.10;1.30;;;;;;;;;;5005872;28;20179;-72
2022/06/29 09:54:25;;;;;;;2.17;1.17;;;;;;;;;;5009240;28;20210;-71
2022/06/29 09:56:51;;;;;;;2.53;1.40;;;;;;;;;;5006285;28;20178;-72
2022/06/29 10:02:34;;;;;;;1.83;0.98;;;;;;;;;;5010661;28;20685;-71
2022/06/29 10:04:59;;;;;;;2.30;1.30;;;;;;;;;;5007577;28;20177;-72
2022/06/29 10:07:24;;;;;;;2.08;1.30;;;;;;;;;;5006986;28;20202;-72
2022/06/29 10:09:50;;;;;;;2.92;1.40;;;;;;;;;;5010292;28;20190;-72
2022/06/29 10:15:19;;;;;;;3.13;1.23;;;;;;;;;;5012557;28;20181;-72
2022/06/29 10:18:03;;;;;;;3.55;0.90;;;;;;;;;;5010317;28;20242;-73
2022/06/29 10:20:45;;;;;;;5.30;1.02;;;;;;;;;;5008437;28;20297;-72
2022/06/29 10:23:29;;;;;;;2.20;1.00;;;;;;;;;;4994151;28;20194;-72
2022/06/29 10:25:55;;;;;;;2.25;1.10;;;;;;;;;;5008220;28;20557;-72
2022/06/29 10:28:23;;;;;;;3.13;1.20;;;;;;;;;;5009293;28;20228;-72
2022/06/29 10:30:48;;;;;;;2.75;1.00;;;;;;;;;;5014320;28;20439;-72
2022/06/29 10:33:28;;;;;;;2.10;1.17;;;;;;;;;;5011222;28;20557;-73
2022/06/29 10:36:06;;;;;;;2.72;1.20;;;;;;;;;;5017310;28;20167;-72
2022/06/29 10:38:49;;;;;;;2.53;1.23;;;;;;;;;;5010950;28;20244;-72
2022/06/29 10:43:58;;;;;;;2.25;1.52;;;;;;;;;;5005104;28;20235;-72
2022/06/29 10:46:23;;;;;;;3.40;1.30;;;;;;;;;;5011253;28;20632;-72
2022/06/29 10:49:07;;;;;;;3.00;1.00;;;;;;;;;;5010653;28;20248;-72
2022/06/29 10:51:33;;;;;;;4.72;1.33;;;;;;;;;;5011026;28;20210;-72
2022/06/29 10:53:58;;;;;;;1.63;0.95;;;;;;;;;;5011117;28;20245;-72
2022/06/29 10:56:23;;;;;;;3.80;1.30;;;;;;;;;;5010625;28;20595;-73
2022/06/29 10:58:48;;;;;;;3.80;1.30;;;;;;;;;;5011440;28;20940;-72
2022/06/29 11:01:13;;;;;;;3.67;1.13;;;;;;;;;;5009083;28;20189;-73
2022/06/29 11:03:39;;;;;;;1.60;1.17;;;;;;;;;;5010411;28;20194;-72
2022/06/29 11:17:39;;;;;;;2.13;1.00;;;;;;;;;;5006133;28;20181;-72
2022/06/29 11:19:56;;;;;;;2.35;1.23;;;;;;;;;;5013869;28;20318;-72
2022/06/29 11:22:22;;;;;;;2.58;0.88;;;;;;;;;;5011132;28;20583;-72
2022/06/29 11:24:54;;;;;;;2.22;0.90;;;;;;;;;;5008601;28;20170;-72
2022/06/29 11:27:35;;;;;;;2.85;1.10;;;;;;;;;;5009602;28;20206;-75
2022/06/29 11:30:02;;;;;;;3.30;1.00;;;;;;;;;;5011120;28;20179;-72
2022/06/29 11:32:41;;;;;;;1.88;0.80;;;;;;;;;;4993746;28;20194;-72
2022/06/29 11:35:06;;;;;;;2.40;1.15;;;;;;;;;;4990267;28;20182;-72
2022/06/29 11:37:32;;;;;;;2.60;0.75;;;;;;;;;;4992585;28;20170;-72
2022/06/29 11:39:57;;;;;;;4.38;0.98;;;;;;;;;;5009286;28;20177;-73
2022/06/29 11:45:16;;;;;;;1.63;0.80;;;;;;;;;;5009707;28;20244;-73
2022/06/29 11:47:59;;;;;;;2.63;1.17;;;;;;;;;;5013277;28;20664;-72
2022/06/29 11:50:24;;;;;;;3.75;1.00;;;;;;;;;;5012591;28;20175;-72
2022/06/29 11:52:50;;;;;;;3.17;1.17;;;;;;;;;;5012293;28;20218;-73
2022/06/29 11:55:15;;;;;;;3.30;0.90;;;;;;;;;;4994154;28;20181;-72
2022/06/29 11:57:41;;;;;;;1.48;1.00;;;;;;;;;;5011290;28;20179;-72
2022/06/29 12:00:07;;;;;;;1.63;1.00;;;;;;;;;;5009926;28;20170;-73
2022/06/29 12:02:34;;;;;;;1.17;0.90;;;;;;;;;;5013810;28;20202;-72
2022/06/29 12:05:00;;;;;;;1.42;0.90;;;;;;;;;;4996010;28;20229;-72
2022/06/29 12:07:25;;;;;;;3.38;1.00;;;;;;;;;;4995393;28;20676;-72
2022/06/29 12:09:51;;;;;;;3.35;0.90;;;;;;;;;;5007588;28;20210;-72
2022/06/29 12:12:17;;;;;;;3.80;0.90;;;;;;;;;;4993891;28;20178;-72
2022/06/29 12:14:42;;;;;;;4.35;1.00;;;;;;;;;;5016691;28;20174;-72
2022/06/29 12:17:09;;;;;;;3.70;1.00;;;;;;;;;;5014066;28;20181;-73
2022/06/29 12:19:35;;;;;;;2.55;1.05;;;;;;;;;;5015276;28;20651;-73
2022/06/29 12:22:00;;;;;;;2.40;0.93;;;;;;;;;;5013396;28;20182;-73
2022/06/29 12:24:26;;;;;;;2.97;1.00;;;;;;;;;;5009052;28;20286;-73
2022/06/29 12:26:51;;;;;;;3.13;1.17;;;;;;;;;;5010796;28;20503;-72
2022/06/29 12:29:17;;;;;;;3.22;1.08;;;;;;;;;;5013316;28;20212;-73
2022/06/29 12:31:43;;;;;;;3.22;0.85;;;;;;;;;;5013804;28;20185;-73
2022/06/29 12:34:09;;;;;;;1.50;1.20;;;;;;;;;;5013894;28;20194;-73
2022/06/29 12:36:34;;;;;;;2.53;0.93;;;;;;;;;;5016488;28;20163;-74
2022/06/29 12:38:59;;;;;;;2.25;0.85;;;;;;;;;;5012859;28;20269;-73
2022/06/29 12:41:24;;;;;;;5.28;1.33;;;;;;;;;;5013750;28;20178;-73
2022/06/29 12:43:50;;;;;;;3.30;1.07;;;;;;;;;;5013215;28;20229;-72
2022/06/29 12:46:15;;;;;;;3.67;1.42;;;;;;;;;;4996152;28;20174;-73
2022/06/29 12:48:40;;;;;;;2.90;1.10;;;;;;;;;;5012729;28;20214;-73
2022/06/29 12:51:06;;;;;;;2.13;1.17;;;;;;;;;;5007063;28;20163;-73
2022/06/29 12:53:31;;;;;;;2.88;1.00;;;;;;;;;;5012760;28;20210;-73
2022/06/29 12:55:57;;;;;;;2.97;1.15;;;;;;;;;;5012906;28;20189;-73
2022/06/29 12:58:23;;;;;;;2.55;1.00;;;;;;;;;;5010573;28;20261;-72
2022/06/29 13:00:48;;;;;;;1.48;1.10;;;;;;;;;;5013538;28;20344;-72
2022/06/29 13:03:14;;;;;;;2.40;0.90;;;;;;;;;;5013445;28;20202;-73
2022/06/29 13:05:39;;;;;;;3.47;1.13;;;;;;;;;;5013818;28;20174;-73
2022/06/29 13:08:04;;;;;;;4.13;1.13;;;;;;;;;;5011617;28;20193;-73
2022/06/29 13:10:31;;;;;;;1.20;1.00;;;;;;;;;;5006289;28;20172;-74
2022/06/29 13:12:56;;;;;;;3.75;1.13;;;;;;;;;;5005072;28;20188;-73
2022/06/29 13:15:21;;;;;;;4.87;1.13;;;;;;;;;;5013815;28;20174;-74
2022/06/29 13:17:46;;;;;;;3.07;0.90;;;;;;;;;;5011852;28;20518;-73
2022/06/29 13:20:12;;;;;;;1.83;1.20;;;;;;;;;;4998531;28;20189;-73
2022/06/29 13:22:37;;;;;;;1.25;1.00;;;;;;;;;;5012764;28;20194;-73
2022/06/29 13:25:03;;;;;;;17.30;1.83;;;;;;;;;;5011945;28;20186;-73
2022/06/29 13:27:28;;;;;;;2.08;1.10;;;;;;;;;;5012350;28;20202;-73
2022/06/29 13:29:53;;;;;;;4.70;1.23;;;;;;;;;;5011493;28;20265;-74
2022/06/29 13:32:18;;;;;;;5.50;1.10;;;;;;;;;;5012409;28;20181;-74
2022/06/29 13:34:43;;;;;;;2.07;0.90;;;;;;;;;;5011682;28;20170;-73
2022/06/29 13:37:09;;;;;;;3.10;1.20;;;;;;;;;;5011652;28;20185;-73
2022/06/29 13:39:34;;;;;;;1.67;0.80;;;;;;;;;;5013702;28;20209;-73
2022/06/29 13:42:00;;;;;;;3.70;1.40;;;;;;;;;;5011579;28;20261;-73
2022/06/29 13:44:25;;;;;;;3.35;1.08;;;;;;;;;;5010936;28;20443;-73
2022/06/29 13:46:51;;;;;;;1.65;1.10;;;;;;;;;;5010243;28;20723;-73
2022/06/29 13:49:16;;;;;;;3.10;1.20;;;;;;;;;;5009811;28;20177;-73
2022/06/29 13:51:41;;;;;;;3.93;1.30;;;;;;;;;;5010142;28;20181;-73
2022/06/29 13:54:06;;;;;;;2.75;1.30;;;;;;;;;;5011416;28;20538;-73
2022/06/29 13:56:31;;;;;;;2.50;1.10;;;;;;;;;;5012177;28;20196;-73
2022/06/29 13:58:57;;;;;;;2.63;1.20;;;;;;;;;;5004116;28;20185;-72
2022/06/29 14:01:23;;;;;;;2.15;1.15;;;;;;;;;;5012093;28;20230;-73
2022/06/29 14:03:49;;;;;;;3.33;1.20;;;;;;;;;;5006658;28;20230;-73
2022/06/29 14:06:14;;;;;;;1.40;0.88;;;;;;;;;;5012204;28;20519;-72
2022/06/29 14:08:39;;;;;;;2.88;1.15;;;;;;;;;;5010445;28;20202;-73
2022/06/29 14:11:04;;;;;;;3.57;1.23;;;;;;;;;;5010567;28;20175;-72
2022/06/29 14:13:30;;;;;;;2.97;1.85;;;;;;;;;;5010540;28;20282;-72
2022/06/29 14:15:55;;;;;;;1.10;1.00;;;;;;;;;;5012519;28;20558;-72
2022/06/29 14:18:20;;;;;;;5.93;2.00;;;;;;;;;;5010531;28;20179;-72
2022/06/29 14:20:46;;;;;;;4.93;1.88;;;;;;;;;;5009289;28;20572;-72
2022/06/29 14:23:11;;;;;;;4.75;1.73;;;;;;;;;;5014605;28;20203;-73
2022/06/29 14:25:37;;;;;;;6.68;1.90;;;;;;;;;;5011117;28;20195;-72
2022/06/29 14:28:02;;;;;;;3.83;1.83;;;;;;;;;;5011026;28;20218;-72
2022/06/29 14:30:27;;;;;;;5.70;1.83;;;;;;;;;;5014837;28;20652;-73
2022/06/29 14:32:53;;;;;;;2.77;1.63;;;;;;;;;;5011480;28;20191;-72
2022/06/29 14:35:19;;;;;;;5.22;2.25;;;;;;;;;;5011684;28;20428;-71
2022/06/29 14:37:44;;;;;;;7.43;1.90;;;;;;;;;;5010352;28;20265;-71
2022/06/29 14:40:09;;;;;;;4.40;2.13;;;;;;;;;;5014306;28;20652;-72
2022/06/29 14:42:35;;;;;;;6.32;2.20;;;;;;;;;;5011473;28;20226;-71
2022/06/29 14:45:01;;;;;;;5.18;1.88;;;;;;;;;;5011794;28;20167;-71
2022/06/29 14:47:26;;;;;;;3.75;1.50;;;;;;;;;;5011619;28;20668;-71
2022/06/29 14:49:52;;;;;;;3.78;2.28;;;;;;;;;;5011418;28;20171;-72
2022/06/29 14:52:17;;;;;;;3.77;1.80;;;;;;;;;;5011602;28;20178;-71
2022/06/29 14:54:42;;;;;;;6.00;2.10;;;;;;;;;;5010656;28;20206;-73
2022/06/29 14:57:07;;;;;;;5.90;2.13;;;;;;;;;;5011465;28;20495;-72
2022/06/29 14:59:32;;;;;;;5.70;2.05;;;;;;;;;;5010519;28;20695;-73
2022/06/29 15:01:58;;;;;;;5.57;1.70;;;;;;;;;;5011597;28;20179;-73
2022/06/29 15:04:23;;;;;;;3.60;1.90;;;;;;;;;;5011256;28;20850;-73
2022/06/29 15:06:48;;;;;;;5.55;2.22;;;;;;;;;;5011375;28;20565;-73
2022/06/29 15:09:14;;;;;;;4.47;2.30;;;;;;;;;;5007606;28;20175;-73